createdAt,value
2017-12-02T00:00:12.865Z,1012.58
2017-12-02T00:00:53.298Z,1012.61
2017-12-02T00:01:33.663Z,1012.58
2017-12-02T00:02:14.015Z,1012.64
2017-12-02T00:02:54.424Z,1012.6
2017-12-02T00:03:34.822Z,1012.61
2017-12-02T00:04:15.224Z,1012.65
2017-12-02T00:04:55.692Z,1012.68
2017-12-02T00:05:36.029Z,1012.65
2017-12-02T00:06:16.399Z,1012.66
2017-12-02T00:06:56.819Z,1012.63
2017-12-02T00:07:37.209Z,1012.68
2017-12-02T00:08:17.716Z,1012.66
2017-12-02T00:08:58.077Z,1012.68
2017-12-02T00:09:38.538Z,1012.68
2017-12-02T00:10:18.922Z,1012.7
2017-12-02T00:10:59.290Z,1012.72
2017-12-02T00:11:39.802Z,1012.71
2017-12-02T00:12:20.120Z,1012.74
2017-12-02T00:13:00.481Z,1012.72
2017-12-02T00:13:40.928Z,1012.69
2017-12-02T00:14:21.333Z,1012.68
2017-12-02T00:15:01.903Z,1012.69
2017-12-02T00:15:42.406Z,1012.7
2017-12-02T00:16:22.660Z,1012.67
2017-12-02T00:17:03.050Z,1012.66
2017-12-02T00:17:43.395Z,1012.66
2017-12-02T00:18:23.913Z,1012.7
2017-12-02T00:19:04.331Z,1012.69
2017-12-02T00:19:44.784Z,1012.69
2017-12-02T00:20:25.136Z,1012.65
2017-12-02T00:21:05.521Z,1012.68
2017-12-02T00:21:45.925Z,1012.7
2017-12-02T00:22:26.350Z,1012.68
2017-12-02T00:23:06.811Z,1012.7
2017-12-02T00:23:47.325Z,1012.74
2017-12-02T00:24:27.779Z,1012.74
2017-12-02T00:25:08.134Z,1012.74
2017-12-02T00:25:48.447Z,1012.78
2017-12-02T00:26:28.918Z,1012.76
2017-12-02T00:27:09.314Z,1012.79
2017-12-02T00:27:49.675Z,1012.84
2017-12-02T00:28:30.123Z,1012.82
2017-12-02T00:29:10.457Z,1012.81
2017-12-02T00:29:50.851Z,1012.89
2017-12-02T00:31:52.625Z,1012.93
2017-12-02T00:35:39.984Z,1012.88
2017-12-02T00:37:35.528Z,1012.88
2017-12-02T00:41:34.173Z,1012.95
2017-12-02T00:42:25.132Z,1012.94
2017-12-02T00:43:19.022Z,1012.94
2017-12-02T00:45:48.472Z,1012.95
2017-12-02T00:47:46.163Z,1012.98
2017-12-02T00:48:35.755Z,1012.97
2017-12-02T00:49:29.137Z,1012.95
2017-12-02T00:50:21.779Z,1013
2017-12-02T00:52:19.589Z,1013.01
2017-12-02T00:53:12.121Z,1012.97
2017-12-02T00:58:32.634Z,1012.82
2017-12-02T01:06:38.387Z,1013.11
2017-12-02T01:07:29.853Z,1013.13
2017-12-02T01:09:36.326Z,1013.06
2017-12-02T01:12:05.389Z,1013.2
2017-12-02T01:14:38.814Z,1013.23
2017-12-02T01:15:31.899Z,1013.23
2017-12-02T01:16:24.482Z,1013.28
2017-12-02T01:17:12.103Z,1013.28
2017-12-02T01:17:52.251Z,1013.28
2017-12-02T01:18:32.644Z,1013.27
2017-12-02T01:19:13.777Z,1013.28
2017-12-02T01:19:53.360Z,1013.3
2017-12-02T01:20:33.788Z,1013.31
2017-12-02T01:21:14.156Z,1013.29
2017-12-02T01:21:54.602Z,1013.31
2017-12-02T01:22:34.983Z,1013.32
2017-12-02T01:23:15.382Z,1013.35
2017-12-02T01:23:55.830Z,1013.32
2017-12-02T01:24:36.167Z,1013.34
2017-12-02T01:25:16.571Z,1013.34
2017-12-02T01:25:57.026Z,1013.31
2017-12-02T01:26:37.351Z,1013.35
2017-12-02T01:27:17.773Z,1013.35
2017-12-02T01:27:58.223Z,1013.41
2017-12-02T01:28:38.644Z,1013.39
2017-12-02T01:29:19.123Z,1013.36
2017-12-02T01:29:59.407Z,1013.43
2017-12-02T01:30:39.815Z,1013.41
2017-12-02T01:31:20.229Z,1013.44
2017-12-02T01:32:00.641Z,1013.43
2017-12-02T01:32:41.033Z,1013.43
2017-12-02T01:33:21.419Z,1013.44
2017-12-02T01:34:01.841Z,1013.45
2017-12-02T01:34:42.230Z,1013.48
2017-12-02T01:35:22.610Z,1013.48
2017-12-02T01:36:03.090Z,1013.5
2017-12-02T01:36:43.451Z,1013.52
2017-12-02T01:37:23.843Z,1013.52
2017-12-02T01:38:04.268Z,1013.57
2017-12-02T01:38:44.699Z,1013.56
2017-12-02T01:39:25.089Z,1013.56
2017-12-02T01:40:05.512Z,1013.55
2017-12-02T01:40:46.006Z,1013.57
2017-12-02T01:41:26.460Z,1013.58
2017-12-02T01:42:06.855Z,1013.59
2017-12-02T01:42:47.266Z,1013.6
2017-12-02T01:43:27.668Z,1013.61
2017-12-02T01:44:08.040Z,1013.61
2017-12-02T01:44:48.511Z,1013.6
2017-12-02T01:45:28.889Z,1013.63
2017-12-02T01:46:09.240Z,1013.63
2017-12-02T01:46:49.718Z,1013.65
2017-12-02T01:47:30.075Z,1013.6
2017-12-02T01:48:10.518Z,1013.63
2017-12-02T01:48:50.880Z,1013.65
2017-12-02T01:49:31.301Z,1013.64
2017-12-02T01:50:11.717Z,1013.64
2017-12-02T01:50:52.164Z,1013.67
2017-12-02T01:51:32.543Z,1013.69
2017-12-02T01:52:12.957Z,1013.71
2017-12-02T01:52:53.343Z,1013.73
2017-12-02T01:53:33.693Z,1013.73
2017-12-02T01:54:14.087Z,1013.75
2017-12-02T01:54:54.491Z,1013.77
2017-12-02T01:55:34.839Z,1013.77
2017-12-02T01:56:15.322Z,1013.77
2017-12-02T01:56:55.780Z,1013.79
2017-12-02T01:57:36.179Z,1013.8
2017-12-02T01:58:16.619Z,1013.82
2017-12-02T01:58:56.987Z,1013.83
2017-12-02T01:59:37.433Z,1013.84
2017-12-02T02:00:17.845Z,1013.88
2017-12-02T02:00:58.211Z,1013.84
2017-12-02T02:01:38.677Z,1013.89
2017-12-02T02:02:19.112Z,1013.91
2017-12-02T02:02:59.455Z,1013.91
2017-12-02T02:03:39.863Z,1013.93
2017-12-02T02:04:20.313Z,1013.91
2017-12-02T02:05:00.850Z,1013.96
2017-12-02T02:05:41.196Z,1013.95
2017-12-02T02:06:21.612Z,1013.95
2017-12-02T02:07:02.036Z,1013.95
2017-12-02T02:07:42.427Z,1013.95
2017-12-02T02:08:22.824Z,1013.94
2017-12-02T02:09:03.186Z,1013.93
2017-12-02T02:09:44.315Z,1013.99
2017-12-02T02:10:24.656Z,1014
2017-12-02T02:11:05.058Z,1014.01
2017-12-02T02:11:45.403Z,1014.04
2017-12-02T02:12:25.768Z,1014.05
2017-12-02T02:13:06.199Z,1014.04
2017-12-02T02:13:46.531Z,1014.06
2017-12-02T02:14:26.965Z,1014.07
2017-12-02T02:15:07.362Z,1014.06
2017-12-02T02:15:47.716Z,1014.05
2017-12-02T02:16:28.069Z,1014.05
2017-12-02T02:17:08.553Z,1014.06
2017-12-02T02:17:48.933Z,1014.08
2017-12-02T02:18:29.379Z,1014.1
2017-12-02T02:19:09.751Z,1014.09
2017-12-02T02:19:50.168Z,1014.13
2017-12-02T02:20:30.562Z,1014.13
2017-12-02T02:21:10.982Z,1014.16
2017-12-02T02:21:51.457Z,1014.16
2017-12-02T02:22:31.834Z,1014.14
2017-12-02T02:23:12.235Z,1014.16
2017-12-02T02:23:52.566Z,1014.19
2017-12-02T02:24:33.085Z,1014.15
2017-12-02T02:25:13.454Z,1014.18
2017-12-02T02:25:53.831Z,1014.14
2017-12-02T02:26:34.230Z,1014.12
2017-12-02T02:27:14.595Z,1014.17
2017-12-02T02:27:54.945Z,1014.15
2017-12-02T02:28:35.364Z,1014.13
2017-12-02T02:29:15.783Z,1014.17
2017-12-02T02:29:56.164Z,1014.17
2017-12-02T02:30:36.564Z,1014.22
2017-12-02T02:31:16.952Z,1014.21
2017-12-02T02:31:57.364Z,1014.21
2017-12-02T02:32:37.749Z,1014.23
2017-12-02T02:33:18.093Z,1014.23
2017-12-02T02:33:58.642Z,1014.19
2017-12-02T02:34:38.952Z,1014.21
2017-12-02T02:35:19.436Z,1014.2
2017-12-02T02:35:59.756Z,1014.21
2017-12-02T02:36:40.225Z,1014.21
2017-12-02T02:37:20.603Z,1014.16
2017-12-02T02:38:01.006Z,1014.2
2017-12-02T02:38:41.440Z,1014.22
2017-12-02T02:39:21.830Z,1014.2
2017-12-02T02:40:02.250Z,1014.19
2017-12-02T02:40:42.685Z,1014.23
2017-12-02T02:41:23.066Z,1014.16
2017-12-02T02:42:03.433Z,1014.2
2017-12-02T02:42:43.817Z,1014.19
2017-12-02T02:43:24.227Z,1014.16
2017-12-02T02:44:04.596Z,1014.2
2017-12-02T02:44:45.096Z,1014.18
2017-12-02T02:45:25.404Z,1014.18
2017-12-02T02:46:05.868Z,1014.17
2017-12-02T02:46:46.249Z,1014.21
2017-12-02T02:47:26.604Z,1014.22
2017-12-02T02:48:06.988Z,1014.22
2017-12-02T02:48:47.454Z,1014.18
2017-12-02T02:49:27.840Z,1014.2
2017-12-02T02:50:08.194Z,1014.22
2017-12-02T02:50:48.627Z,1014.21
2017-12-02T02:51:29.076Z,1014.18
2017-12-02T02:52:09.450Z,1014.2
2017-12-02T02:52:49.791Z,1014.22
2017-12-02T02:53:30.195Z,1014.26
2017-12-02T02:54:10.590Z,1014.27
2017-12-02T02:54:50.934Z,1014.24
2017-12-02T02:55:31.382Z,1014.25
2017-12-02T02:56:11.805Z,1014.29
2017-12-02T02:56:52.199Z,1014.25
2017-12-02T02:57:32.576Z,1014.27
2017-12-02T02:58:12.943Z,1014.29
2017-12-02T02:58:53.473Z,1014.31
2017-12-02T02:59:33.774Z,1014.34
2017-12-02T03:00:14.207Z,1014.31
2017-12-02T03:00:54.579Z,1014.37
2017-12-02T03:01:35.037Z,1014.37
2017-12-02T03:02:15.337Z,1014.34
2017-12-02T03:02:55.782Z,1014.4
2017-12-02T03:03:36.153Z,1014.41
2017-12-02T03:04:16.561Z,1014.37
2017-12-02T03:04:56.936Z,1014.41
2017-12-02T03:05:37.351Z,1014.41
2017-12-02T03:06:17.725Z,1014.43
2017-12-02T03:06:58.180Z,1014.43
2017-12-02T03:07:38.596Z,1014.4
2017-12-02T03:08:18.997Z,1014.41
2017-12-02T03:08:59.473Z,1014.4
2017-12-02T03:09:39.929Z,1014.41
2017-12-02T03:10:20.280Z,1014.43
2017-12-02T03:11:00.723Z,1014.42
2017-12-02T03:11:41.192Z,1014.37
2017-12-02T03:12:21.538Z,1014.39
2017-12-02T03:13:01.963Z,1014.4
2017-12-02T03:13:42.335Z,1014.37
2017-12-02T03:14:22.741Z,1014.43
2017-12-02T03:15:03.127Z,1014.39
2017-12-02T03:15:43.532Z,1014.4
2017-12-02T03:16:24.083Z,1014.42
2017-12-02T03:17:04.539Z,1014.41
2017-12-02T03:17:44.898Z,1014.4
2017-12-02T03:18:25.294Z,1014.4
2017-12-02T03:19:05.659Z,1014.4
2017-12-02T03:19:46.105Z,1014.39
2017-12-02T03:20:26.503Z,1014.4
2017-12-02T03:21:06.894Z,1014.38
2017-12-02T03:21:47.306Z,1014.44
2017-12-02T03:22:27.673Z,1014.44
2017-12-02T03:23:08.038Z,1014.44
2017-12-02T03:23:48.546Z,1014.44
2017-12-02T03:24:28.936Z,1014.42
2017-12-02T03:25:09.307Z,1014.46
2017-12-02T03:25:49.691Z,1014.43
2017-12-02T03:26:30.166Z,1014.46
2017-12-02T03:27:10.462Z,1014.41
2017-12-02T03:27:50.910Z,1014.41
2017-12-02T03:28:31.284Z,1014.45
2017-12-02T03:29:11.696Z,1014.47
2017-12-02T03:29:52.056Z,1014.47
2017-12-02T03:30:32.481Z,1014.48
2017-12-02T03:31:12.821Z,1014.46
2017-12-02T03:31:53.280Z,1014.5
2017-12-02T03:32:33.724Z,1014.46
2017-12-02T03:33:14.048Z,1014.46
2017-12-02T03:33:54.436Z,1014.47
2017-12-02T03:34:34.838Z,1014.42
2017-12-02T03:35:15.224Z,1014.43
2017-12-02T03:35:55.633Z,1014.42
2017-12-02T03:36:36.028Z,1014.42
2017-12-02T03:37:16.379Z,1014.47
2017-12-02T03:37:56.762Z,1014.49
2017-12-02T03:38:37.186Z,1014.45
2017-12-02T03:39:17.559Z,1014.46
2017-12-02T03:39:57.941Z,1014.51
2017-12-02T03:40:38.438Z,1014.48
2017-12-02T03:41:18.809Z,1014.49
2017-12-02T03:41:59.178Z,1014.54
2017-12-02T03:42:39.598Z,1014.55
2017-12-02T03:43:19.971Z,1014.56
2017-12-02T03:44:00.361Z,1014.53
2017-12-02T03:44:40.819Z,1014.53
2017-12-02T03:45:21.213Z,1014.51
2017-12-02T03:46:01.688Z,1014.52
2017-12-02T03:46:42.037Z,1014.53
2017-12-02T03:47:22.489Z,1014.54
2017-12-02T03:48:02.851Z,1014.58
2017-12-02T03:48:43.254Z,1014.58
2017-12-02T03:49:23.659Z,1014.59
2017-12-02T03:50:04.036Z,1014.57
2017-12-02T03:50:44.476Z,1014.61
2017-12-02T03:51:24.873Z,1014.61
2017-12-02T03:52:05.267Z,1014.59
2017-12-02T03:52:45.626Z,1014.6
2017-12-02T03:53:26.087Z,1014.6
2017-12-02T03:54:06.518Z,1014.64
2017-12-02T03:54:46.862Z,1014.63
2017-12-02T03:55:27.199Z,1014.67
2017-12-02T03:56:07.667Z,1014.68
2017-12-02T03:56:48.016Z,1014.74
2017-12-02T03:57:28.486Z,1014.73
2017-12-02T03:58:08.856Z,1014.69
2017-12-02T03:58:49.272Z,1014.71
2017-12-02T03:59:29.618Z,1014.76
2017-12-02T04:00:09.971Z,1014.76
2017-12-02T04:00:50.392Z,1014.78
2017-12-02T04:01:30.816Z,1014.76
2017-12-02T04:02:11.217Z,1014.76
2017-12-02T04:02:51.624Z,1014.77
2017-12-02T04:03:31.975Z,1014.8
2017-12-02T04:41:33.321Z,1014.9
2017-12-02T04:43:27.301Z,1014.92
2017-12-02T04:45:52.411Z,1014.98
2017-12-02T04:48:20.657Z,1014.97
2017-12-02T04:49:09.408Z,1015.05
2017-12-02T04:49:58.142Z,1015.04
2017-12-02T04:50:46.093Z,1015.1
2017-12-02T04:52:43.392Z,1015.06
2017-12-02T04:53:24.858Z,1015.03
2017-12-02T04:54:05.299Z,1015
2017-12-02T04:54:45.710Z,1015.01
2017-12-02T04:55:26.059Z,1015.04
2017-12-02T04:56:06.501Z,1015.07
2017-12-02T04:56:46.909Z,1015.03
2017-12-02T04:57:27.267Z,1015.07
2017-12-02T04:58:07.666Z,1015.03
2017-12-02T04:58:48.057Z,1015.05
2017-12-02T04:59:28.559Z,1015.08
2017-12-02T05:00:08.896Z,1015.04
2017-12-02T05:00:49.333Z,1015.04
2017-12-02T05:01:29.707Z,1015.02
2017-12-02T05:02:10.151Z,1015.07
2017-12-02T05:02:50.555Z,1015.02
2017-12-02T05:03:30.956Z,1015.05
2017-12-02T05:04:11.296Z,1015.08
2017-12-02T05:04:51.671Z,1015.1
2017-12-02T05:05:32.114Z,1015.1
2017-12-02T05:06:12.580Z,1015.06
2017-12-02T05:06:52.849Z,1015.07
2017-12-02T05:07:33.275Z,1015.09
2017-12-02T05:08:13.723Z,1015.08
2017-12-02T05:08:54.099Z,1015.07
2017-12-02T05:09:34.448Z,1015.05
2017-12-02T05:10:14.864Z,1015.07
2017-12-02T05:10:55.286Z,1015.05
2017-12-02T05:11:35.618Z,1015.04
2017-12-02T05:12:16.003Z,1015.02
2017-12-02T05:12:56.489Z,1015.06
2017-12-02T05:13:36.907Z,1015.04
2017-12-02T05:14:17.259Z,1015.03
2017-12-02T05:14:57.708Z,1015.06
2017-12-02T05:15:38.147Z,1015.07
2017-12-02T05:16:18.455Z,1015.1
2017-12-02T05:16:58.870Z,1015.1
2017-12-02T05:17:39.256Z,1015.12
2017-12-02T05:18:19.680Z,1015.11
2017-12-02T05:19:00.182Z,1015.08
2017-12-02T05:19:40.502Z,1015.11
2017-12-02T05:20:20.848Z,1015.09
2017-12-02T05:21:01.243Z,1015.07
2017-12-02T05:21:41.640Z,1015.08
2017-12-02T05:22:22.085Z,1015.08
2017-12-02T05:23:02.388Z,1015.07
2017-12-02T05:23:42.818Z,1015.08
2017-12-02T05:24:23.247Z,1015.08
2017-12-02T05:25:03.722Z,1015.08
2017-12-02T05:25:44.104Z,1015.09
2017-12-02T05:26:24.599Z,1015.08
2017-12-02T05:27:04.910Z,1015.07
2017-12-02T05:27:45.392Z,1015.05
2017-12-02T05:28:25.775Z,1015.06
2017-12-02T05:29:06.259Z,1015.03
2017-12-02T05:29:46.627Z,1015.04
2017-12-02T05:30:27.106Z,1015.04
2017-12-02T05:31:07.530Z,1015.03
2017-12-02T05:31:47.941Z,1015.04
2017-12-02T05:32:28.351Z,1015.03
2017-12-02T05:33:08.702Z,1015.08
2017-12-02T05:33:49.088Z,1015.07
2017-12-02T05:34:29.475Z,1015.09
2017-12-02T05:35:09.933Z,1015.13
2017-12-02T05:35:50.265Z,1015.1
2017-12-02T05:36:30.721Z,1015.07
2017-12-02T05:37:11.075Z,1015.08
2017-12-02T05:37:51.485Z,1015.08
2017-12-02T05:38:31.873Z,1015.06
2017-12-02T05:39:12.219Z,1015.07
2017-12-02T05:39:52.734Z,1015.11
2017-12-02T05:40:33.073Z,1015.09
2017-12-02T05:41:13.434Z,1015.14
2017-12-02T05:41:53.994Z,1015.19
2017-12-02T05:42:34.398Z,1015.17
2017-12-02T05:43:14.891Z,1015.19
2017-12-02T05:43:55.171Z,1015.19
2017-12-02T05:44:35.551Z,1015.19
2017-12-02T05:45:15.969Z,1015.21
2017-12-02T05:45:56.348Z,1015.21
2017-12-02T05:46:36.753Z,1015.24
2017-12-02T05:47:17.109Z,1015.24
2017-12-02T05:47:57.533Z,1015.22
2017-12-02T05:48:37.929Z,1015.25
2017-12-02T05:49:18.345Z,1015.18
2017-12-02T05:49:58.736Z,1015.22
2017-12-02T05:50:39.092Z,1015.24
2017-12-02T05:51:19.616Z,1015.21
2017-12-02T05:51:59.958Z,1015.22
2017-12-02T05:52:40.389Z,1015.22
2017-12-02T05:53:20.737Z,1015.19
2017-12-02T05:54:01.179Z,1015.21
2017-12-02T05:54:41.608Z,1015.18
2017-12-02T05:55:22.035Z,1015.19
2017-12-02T05:56:02.420Z,1015.19
2017-12-02T05:56:42.711Z,1015.21
2017-12-02T05:57:23.139Z,1015.27
2017-12-02T05:58:03.600Z,1015.23
2017-12-02T05:58:43.976Z,1015.23
2017-12-02T05:59:24.330Z,1015.21
2017-12-02T06:00:04.851Z,1015.21
2017-12-02T06:00:45.241Z,1015.22
2017-12-02T06:01:25.626Z,1015.29
2017-12-02T06:02:06.033Z,1015.24
2017-12-02T06:02:46.409Z,1015.27
2017-12-02T06:03:26.856Z,1015.29
2017-12-02T06:04:07.219Z,1015.29
2017-12-02T06:04:47.685Z,1015.32
2017-12-02T06:05:28.009Z,1015.31
2017-12-02T06:06:08.429Z,1015.35
2017-12-02T06:06:48.881Z,1015.39
2017-12-02T06:07:29.268Z,1015.41
2017-12-02T06:08:09.678Z,1015.44
2017-12-02T06:08:50.072Z,1015.43
2017-12-02T06:09:30.509Z,1015.43
2017-12-02T06:10:11.008Z,1015.43
2017-12-02T06:10:51.310Z,1015.43
2017-12-02T06:11:31.756Z,1015.4
2017-12-02T06:12:12.145Z,1015.4
2017-12-02T06:12:52.684Z,1015.42
2017-12-02T06:13:33.047Z,1015.44
2017-12-02T06:14:13.509Z,1015.46
2017-12-02T06:14:53.842Z,1015.46
2017-12-02T06:15:34.207Z,1015.46
2017-12-02T06:16:14.661Z,1015.43
2017-12-02T06:16:55.049Z,1015.44
2017-12-02T06:17:35.429Z,1015.41
2017-12-02T06:18:15.874Z,1015.41
2017-12-02T06:18:56.297Z,1015.45
2017-12-02T06:19:36.678Z,1015.5
2017-12-02T06:20:17.039Z,1015.5
2017-12-02T06:20:57.460Z,1015.52
2017-12-02T06:21:37.812Z,1015.52
2017-12-02T06:22:18.214Z,1015.51
2017-12-02T06:22:58.627Z,1015.51
2017-12-02T06:23:38.978Z,1015.54
2017-12-02T06:24:19.415Z,1015.53
2017-12-02T06:24:59.787Z,1015.5
2017-12-02T06:25:40.153Z,1015.51
2017-12-02T06:26:20.532Z,1015.52
2017-12-02T06:27:00.989Z,1015.55
2017-12-02T06:27:41.394Z,1015.54
2017-12-02T06:28:21.771Z,1015.55
2017-12-02T06:29:02.154Z,1015.6
2017-12-02T06:29:42.536Z,1015.56
2017-12-02T06:30:22.976Z,1015.61
2017-12-02T06:31:03.441Z,1015.63
2017-12-02T06:31:43.842Z,1015.61
2017-12-02T06:32:24.279Z,1015.64
2017-12-02T06:33:04.711Z,1015.6
2017-12-02T06:33:44.988Z,1015.64
2017-12-02T06:34:25.415Z,1015.63
2017-12-02T06:35:05.877Z,1015.61
2017-12-02T06:35:46.325Z,1015.58
2017-12-02T06:36:26.746Z,1015.64
2017-12-02T06:37:07.182Z,1015.59
2017-12-02T06:37:47.544Z,1015.62
2017-12-02T06:38:27.970Z,1015.62
2017-12-02T06:39:08.398Z,1015.58
2017-12-02T06:39:48.761Z,1015.58
2017-12-02T06:40:29.151Z,1015.59
2017-12-02T06:41:09.522Z,1015.62
2017-12-02T06:41:49.934Z,1015.61
2017-12-02T06:42:30.430Z,1015.62
2017-12-02T06:43:10.797Z,1015.64
2017-12-02T06:43:51.175Z,1015.65
2017-12-02T06:44:31.608Z,1015.64
2017-12-02T06:45:11.963Z,1015.68
2017-12-02T06:45:52.421Z,1015.65
2017-12-02T06:46:32.750Z,1015.67
2017-12-02T06:47:13.184Z,1015.69
2017-12-02T06:47:53.661Z,1015.68
2017-12-02T06:48:34.000Z,1015.72
2017-12-02T06:49:14.391Z,1015.73
2017-12-02T06:49:54.819Z,1015.74
2017-12-02T06:50:35.284Z,1015.78
2017-12-02T06:51:15.773Z,1015.82
2017-12-02T06:51:56.105Z,1015.8
2017-12-02T06:52:36.524Z,1015.79
2017-12-02T06:53:16.908Z,1015.8
2017-12-02T06:53:57.327Z,1015.85
2017-12-02T06:54:37.637Z,1015.85
2017-12-02T06:55:18.145Z,1015.9
2017-12-02T06:55:58.560Z,1015.85
2017-12-02T06:56:38.893Z,1015.84
2017-12-02T06:57:19.257Z,1015.87
2017-12-02T06:57:59.745Z,1015.88
2017-12-02T06:58:40.049Z,1015.9
2017-12-02T06:59:20.519Z,1015.91
2017-12-02T07:00:00.917Z,1015.91
2017-12-02T07:00:41.260Z,1015.97
2017-12-02T07:01:21.646Z,1015.94
2017-12-02T07:02:02.024Z,1015.96
2017-12-02T07:02:42.491Z,1015.98
2017-12-02T07:03:22.933Z,1015.98
2017-12-02T07:04:03.302Z,1016
2017-12-02T07:04:43.954Z,1016
2017-12-02T07:05:24.378Z,1015.97
2017-12-02T07:06:04.709Z,1016.03
2017-12-02T07:06:45.266Z,1016.07
2017-12-02T07:07:25.776Z,1016.07
2017-12-02T07:08:06.210Z,1016.12
2017-12-02T07:08:46.602Z,1016.14
2017-12-02T07:09:27.027Z,1016.13
2017-12-02T07:10:07.406Z,1016.21
2017-12-02T07:10:47.784Z,1016.17
2017-12-02T07:11:28.162Z,1016.21
2017-12-02T07:12:08.639Z,1016.22
2017-12-02T07:12:49.049Z,1016.25
2017-12-02T07:13:29.460Z,1016.27
2017-12-02T07:14:09.996Z,1016.25
2017-12-02T07:14:50.330Z,1016.29
2017-12-02T07:15:30.575Z,1016.29
2017-12-02T07:16:11.011Z,1016.25
2017-12-02T07:16:51.400Z,1016.29
2017-12-02T07:17:31.886Z,1016.25
2017-12-02T07:18:12.287Z,1016.25
2017-12-02T07:18:52.664Z,1016.24
2017-12-02T07:19:33.057Z,1016.19
2017-12-02T07:20:13.481Z,1016.17
2017-12-02T07:20:53.855Z,1016.17
2017-12-02T07:21:34.264Z,1016.15
2017-12-02T07:22:14.672Z,1016.2
2017-12-02T07:22:55.015Z,1016.19
2017-12-02T07:23:35.409Z,1016.19
2017-12-02T07:24:15.835Z,1016.19
2017-12-02T07:24:56.277Z,1016.22
2017-12-02T07:25:36.649Z,1016.19
2017-12-02T07:26:16.982Z,1016.2
2017-12-02T07:26:57.400Z,1016.24
2017-12-02T07:27:37.750Z,1016.25
2017-12-02T07:28:18.179Z,1016.24
2017-12-02T07:28:58.541Z,1016.24
2017-12-02T07:29:38.923Z,1016.28
2017-12-02T07:30:19.343Z,1016.25
2017-12-02T07:30:59.681Z,1016.23
2017-12-02T07:31:40.126Z,1016.26
2017-12-02T07:32:20.504Z,1016.3
2017-12-02T07:33:00.859Z,1016.27
2017-12-02T07:33:41.306Z,1016.28
2017-12-02T07:34:21.750Z,1016.3
2017-12-02T07:35:02.068Z,1016.28
2017-12-02T07:35:42.512Z,1016.28
2017-12-02T07:36:22.915Z,1016.3
2017-12-02T07:37:03.301Z,1016.27
2017-12-02T07:37:43.648Z,1016.33
2017-12-02T07:38:24.096Z,1016.33
2017-12-02T07:39:04.580Z,1016.3
2017-12-02T07:39:44.960Z,1016.34
2017-12-02T07:40:25.377Z,1016.35
2017-12-02T07:41:05.766Z,1016.33
2017-12-02T07:41:46.175Z,1016.34
2017-12-02T07:42:26.611Z,1016.38
2017-12-02T07:43:07.021Z,1016.39
2017-12-02T07:43:47.462Z,1016.42
2017-12-02T07:44:27.867Z,1016.4
2017-12-02T07:45:08.293Z,1016.44
2017-12-02T07:45:48.658Z,1016.46
2017-12-02T07:46:29.060Z,1016.49
2017-12-02T07:47:09.458Z,1016.45
2017-12-02T07:47:49.879Z,1016.5
2017-12-02T07:48:30.246Z,1016.51
2017-12-02T07:49:10.629Z,1016.52
2017-12-02T07:49:50.992Z,1016.53
2017-12-02T07:50:31.414Z,1016.55
2017-12-02T07:51:11.796Z,1016.56
2017-12-02T07:51:52.156Z,1016.55
2017-12-02T07:52:32.606Z,1016.6
2017-12-02T07:53:13.011Z,1016.56
2017-12-02T07:53:53.457Z,1016.55
2017-12-02T07:54:34.022Z,1016.57
2017-12-02T07:55:14.422Z,1016.59
2017-12-02T07:55:54.875Z,1016.61
2017-12-02T07:56:35.309Z,1016.62
2017-12-02T07:57:15.722Z,1016.62
2017-12-02T07:57:56.163Z,1016.61
2017-12-02T07:58:36.955Z,1016.68
2017-12-02T07:59:17.441Z,1016.68
2017-12-02T07:59:58.030Z,1016.64
2017-12-02T08:00:38.660Z,1016.66
2017-12-02T08:01:19.201Z,1016.67
2017-12-02T08:02:00.358Z,1016.67
2017-12-02T08:02:41.644Z,1016.7
2017-12-02T08:03:22.019Z,1016.68
2017-12-02T08:04:02.391Z,1016.69
2017-12-02T08:04:42.887Z,1016.65
2017-12-02T08:05:23.250Z,1016.71
2017-12-02T08:06:03.649Z,1016.7
2017-12-02T08:06:44.076Z,1016.69
2017-12-02T08:07:24.438Z,1016.69
2017-12-02T08:08:04.868Z,1016.7
2017-12-02T08:08:45.359Z,1016.7
2017-12-02T08:09:25.786Z,1016.7
2017-12-02T08:10:06.229Z,1016.7
2017-12-02T08:10:46.622Z,1016.71
2017-12-02T08:11:27.014Z,1016.73
2017-12-02T08:12:07.377Z,1016.7
2017-12-02T08:12:48.796Z,1016.75
2017-12-02T08:13:29.744Z,1016.72
2017-12-02T08:14:11.307Z,1016.7
2017-12-02T08:14:52.375Z,1016.74
2017-12-02T08:15:33.526Z,1016.71
2017-12-02T08:16:14.613Z,1016.45
2017-12-02T08:16:55.170Z,1016.68
2017-12-02T08:17:35.392Z,1016.66
2017-12-02T08:18:15.761Z,1016.67
2017-12-02T08:18:56.140Z,1016.66
2017-12-02T08:19:36.582Z,1016.7
2017-12-02T08:20:16.973Z,1016.69
2017-12-02T08:20:57.321Z,1016.74
2017-12-02T08:21:37.717Z,1016.73
2017-12-02T08:22:18.131Z,1016.74
2017-12-02T08:22:58.633Z,1016.74
2017-12-02T08:23:38.936Z,1016.76
2017-12-02T08:24:19.333Z,1016.75
2017-12-02T08:24:59.689Z,1016.79
2017-12-02T08:25:40.147Z,1016.74
2017-12-02T08:26:20.517Z,1016.76
2017-12-02T08:27:01.108Z,1016.73
2017-12-02T08:27:41.459Z,1016.73
2017-12-02T08:28:21.820Z,1016.71
2017-12-02T08:29:02.251Z,1016.68
2017-12-02T08:29:42.661Z,1016.72
2017-12-02T08:30:23.046Z,1016.7
2017-12-02T08:31:03.481Z,1016.73
2017-12-02T08:31:43.835Z,1016.69
2017-12-02T08:32:24.172Z,1016.73
2017-12-02T08:33:04.688Z,1016.74
2017-12-02T08:33:45.215Z,1016.74
2017-12-02T08:34:25.494Z,1016.74
2017-12-02T08:35:05.974Z,1016.7
2017-12-02T08:35:46.350Z,1016.74
2017-12-02T08:36:26.861Z,1016.73
2017-12-02T08:37:07.375Z,1016.72
2017-12-02T08:37:47.700Z,1016.7
2017-12-02T08:38:28.145Z,1016.73
2017-12-02T08:39:08.512Z,1016.72
2017-12-02T08:39:48.860Z,1016.72
2017-12-02T08:40:29.233Z,1016.7
2017-12-02T08:41:09.789Z,1016.69
2017-12-02T08:41:50.160Z,1016.73
2017-12-02T08:42:30.535Z,1016.71
2017-12-02T08:43:10.944Z,1016.72
2017-12-02T08:43:51.354Z,1016.71
2017-12-02T08:44:31.796Z,1016.72
2017-12-02T08:45:12.190Z,1016.69
2017-12-02T08:45:52.619Z,1016.71
2017-12-02T08:46:33.000Z,1016.7
2017-12-02T08:47:13.392Z,1016.67
2017-12-02T08:47:53.846Z,1016.72
2017-12-02T08:48:34.192Z,1016.76
2017-12-02T08:49:14.668Z,1016.73
2017-12-02T08:49:55.056Z,1016.74
2017-12-02T08:50:35.440Z,1016.75
2017-12-02T08:51:15.727Z,1016.77
2017-12-02T08:51:56.109Z,1016.76
2017-12-02T08:52:36.599Z,1016.8
2017-12-02T08:53:16.995Z,1016.78
2017-12-02T08:53:57.419Z,1016.81
2017-12-02T08:54:37.839Z,1016.8
2017-12-02T08:55:18.159Z,1016.75
2017-12-02T08:55:58.605Z,1016.78
2017-12-02T08:56:38.965Z,1016.77
2017-12-02T08:57:19.354Z,1016.79
2017-12-02T08:57:59.740Z,1016.78
2017-12-02T08:58:40.191Z,1016.78
2017-12-02T08:59:21.418Z,1016.77
2017-12-02T09:00:01.366Z,1016.79
2017-12-02T09:00:41.720Z,1016.75
2017-12-02T09:01:22.053Z,1016.77
2017-12-02T09:02:02.436Z,1016.76
2017-12-02T09:02:42.879Z,1016.74
2017-12-02T09:03:23.277Z,1016.74
2017-12-02T09:04:03.677Z,1016.75
2017-12-02T09:04:44.027Z,1016.75
2017-12-02T09:05:24.467Z,1016.76
2017-12-02T09:06:04.837Z,1016.77
2017-12-02T09:06:45.338Z,1016.77
2017-12-02T09:07:25.688Z,1016.77
2017-12-02T09:08:06.183Z,1016.76
2017-12-02T09:08:46.604Z,1016.81
2017-12-02T09:09:26.995Z,1016.77
2017-12-02T09:10:22.187Z,1015.96
2017-12-02T09:12:17.483Z,1016.81
2017-12-02T09:12:57.736Z,1016.82
2017-12-02T09:13:38.110Z,1016.84
2017-12-02T09:14:18.461Z,1016.82
2017-12-02T09:14:58.878Z,1016.85
2017-12-02T09:15:39.252Z,1016.87
2017-12-02T09:16:19.610Z,1016.89
2017-12-02T09:17:00.051Z,1016.83
2017-12-02T09:17:40.380Z,1016.9
2017-12-02T09:18:20.867Z,1016.89
2017-12-02T09:19:01.271Z,1016.93
2017-12-02T09:19:41.671Z,1016.92
2017-12-02T09:20:22.018Z,1016.96
2017-12-02T09:21:02.371Z,1016.92
2017-12-02T09:21:42.818Z,1016.97
2017-12-02T09:22:23.230Z,1017
2017-12-02T09:23:03.624Z,1017
2017-12-02T09:23:43.961Z,1016.99
2017-12-02T09:24:24.367Z,1017.01
2017-12-02T09:25:04.769Z,1017.05
2017-12-02T09:25:45.162Z,1017
2017-12-02T09:26:25.505Z,1017.05
2017-12-02T09:27:05.910Z,1017.03
2017-12-02T09:27:46.327Z,1017.06
2017-12-02T09:28:26.785Z,1017.03